M I D A S
Marine Information and Data Acquisition System
Tripno 688 of the Zeeleeuw from 2004-04-26 06:30:06 to 2004-04-26 12:57:17
Back to CruiseResearch ActivitiesStationsMapUnderway DataData graphs

EquipmentUnitsComment
TimeDGPSUTC
LatitudeDGPSDM.mWGS84
LongitudeDGPSDM.mWGS84
HeadingGyrodeg 
SOGDGPSknotsSpeed over ground
COGDGPSdegCourse over ground
DepthEcho soundermeters200 kHz
Missing or incorrect values are displayed as -999
Navigation data collected by the RV Zeeleeuw from 2004-04-26 06:30:06 to 2004-04-26 12:57:17
                                                                                    Next 1000 lines
Time Latitude Longitude Heading SOG COG Depth
2004-04-26 06:30:17 51°13.597 2°56.099 122.5 0.1 191 8.3
2004-04-26 06:30:22 51°13.596 2°56.099 120.8 0.1 173 8.3
2004-04-26 06:30:28 51°13.596 2°56.099 119.7 0.1 185 8.3
2004-04-26 06:30:32 51°13.596 2°56.099 118.3 0.1 211 8.3
2004-04-26 06:30:37 51°13.596 2°56.099 116.8 0.1 232 8.4
2004-04-26 06:30:42 51°13.596 2°56.099 115.8 0.1 232 8.3
2004-04-26 06:30:47 51°13.596 2°56.099 115 0.1 238 8.3
2004-04-26 06:30:52 51°13.596 2°56.097 114.6 0.4 275 8.3
2004-04-26 06:30:57 51°13.596 2°56.095 114.3 1 286 8.4
2004-04-26 06:31:02 51°13.597 2°56.092 114.3 1.4 286 8.6
2004-04-26 06:31:07 51°13.597 2°56.088 115.1 2 290 9.2
2004-04-26 06:31:12 51°13.599 2°56.083 116.3 2.5 292 -999
2004-04-26 06:31:18 51°13.601 2°56.076 118 2.8 293 -999
2004-04-26 06:31:23 51°13.603 2°56.069 119.6 3.2 295 -999
2004-04-26 06:31:28 51°13.605 2°56.062 120.3 3.6 297 -999
2004-04-26 06:31:33 51°13.607 2°56.055 120.9 3.8 297 -999
2004-04-26 06:31:38 51°13.61 2°56.047 121.2 4 298 -999
2004-04-26 06:31:42 51°13.612 2°56.04 121.8 4.1 298 -999
2004-04-26 06:31:48 51°13.615 2°56.03 122 4.4 299 -999
2004-04-26 06:31:53 51°13.618 2°56.021 122.1 4.6 298 -999
2004-04-26 06:31:58 51°13.621 2°56.011 121.9 4.8 298 -999
2004-04-26 06:32:02 51°13.624 2°56.004 121 5 298 -999
2004-04-26 06:32:09 51°13.629 2°55.989 120.7 5.1 297 -999
2004-04-26 06:32:14 51°13.632 2°55.979 120.3 5.3 296 -999
2004-04-26 06:32:19 51°13.635 2°55.968 120 5.4 296 -999
2004-04-26 06:32:23 51°13.638 2°55.959 119.6 5.5 295 -999
2004-04-26 06:32:29 51°13.642 2°55.945 119.1 5.5 295 -999
2004-04-26 06:32:34 51°13.645 2°55.934 118.3 5.5 294 -999
2004-04-26 06:32:39 51°13.648 2°55.923 117 5.6 293 -999
2004-04-26 06:32:43 51°13.651 2°55.914 115.5 5.6 292 -999
2004-04-26 06:32:49 51°13.653 2°55.9 114.2 5.6 291 -999
2004-04-26 06:32:54 51°13.656 2°55.888 112.4 5.6 289 -999
2004-04-26 06:32:59 51°13.658 2°55.877 110.5 5.5 288 -999
2004-04-26 06:33:03 51°13.66 2°55.867 108.1 5.5 286 -999
2004-04-26 06:33:09 51°13.662 2°55.853 106 5.5 284 -999
2004-04-26 06:33:14 51°13.663 2°55.841 104.2 5.5 281 -999
2004-04-26 06:33:19 51°13.664 2°55.829 101.2 5.5 280 -999
2004-04-26 06:33:23 51°13.665 2°55.819 99.2 5.5 277 -999
2004-04-26 06:33:29 51°13.666 2°55.805 96.4 5.5 276 -999
2004-04-26 06:33:34 51°13.666 2°55.794 94.3 4.9 273 -999
2004-04-26 06:33:39 51°13.666 2°55.785 91.9 4.4 272 -999
2004-04-26 06:33:43 51°13.666 2°55.779 89.1 3.5 269 -999
2004-04-26 06:33:49 51°13.666 2°55.772 86.3 2.9 267 -999
2004-04-26 06:33:53 51°13.666 2°55.768 82.1 2.2 266 10.9
2004-04-26 06:33:57 51°13.666 2°55.765 78.8 2.2 266 -999
2004-04-26 06:34:03 51°13.665 2°55.763 75.8 1.2 263 11
2004-04-26 06:34:09 51°13.666 2°55.761 71.4 0.8 277 6.5
2004-04-26 06:34:13 51°13.666 2°55.761 66.2 0.4 300 5.1
2004-04-26 06:34:18 51°13.668 2°55.762 59.1 0.9 19 5.1
2004-04-26 06:34:23 51°13.67 2°55.764 52.3 1.4 30 11.6
2004-04-26 06:34:27 51°13.672 2°55.766 43.8 2.3 22 12
2004-04-26 06:34:33 51°13.676 2°55.768 36.5 2.9 17 12.7
2004-04-26 06:34:37 51°13.68 2°55.769 27.3 3.4 11 13.8
2004-04-26 06:34:43 51°13.687 2°55.769 18.1 3.8 4 14.4
2004-04-26 06:34:47 51°13.692 2°55.767 8.7 4.2 355 14.8
2004-04-26 06:34:53 51°13.7 2°55.764 359.3 4.9 347 15.8
2004-04-26 06:34:58 51°13.706 2°55.759 349.9 5.2 336 15.3
2004-04-26 06:35:03 51°13.712 2°55.753 340.4 5 332 15
2004-04-26 06:35:07 51°13.717 2°55.749 336.7 4.9 331 13.7
2004-04-26 06:35:13 51°13.724 2°55.741 333.4 5.3 327 12.7
2004-04-26 06:35:18 51°13.731 2°55.734 331.5 5.6 326 11.5
2004-04-26 06:35:23 51°13.737 2°55.726 330.2 5.9 325 10.9
2004-04-26 06:35:27 51°13.743 2°55.719 329.4 6.1 324 10.9
2004-04-26 06:35:33 51°13.752 2°55.709 329.4 6.4 324 10.8
2004-04-26 06:35:38 51°13.759 2°55.701 329.5 6.7 324 10.7
2004-04-26 06:35:43 51°13.767 2°55.692 329.6 6.8 324 10.8
2004-04-26 06:35:47 51°13.774 2°55.685 329.6 7 324 11
2004-04-26 06:35:53 51°13.784 2°55.674 329.6 7.2 324 10.9
2004-04-26 06:35:58 51°13.792 2°55.665 330.5 7.3 327 10.9
2004-04-26 06:36:03 51°13.801 2°55.657 332.1 7.4 328 11.3
2004-04-26 06:36:07 51°13.809 2°55.65 334.5 7.5 330 11.2
2004-04-26 06:36:13 51°13.82 2°55.641 336.2 7.6 332 11.2
2004-04-26 06:36:18 51°13.829 2°55.633 337.6 7.7 333 11.2
2004-04-26 06:36:25 51°13.843 2°55.623 339.7 6.4 335 11.3
2004-04-26 06:36:29 51°13.851 2°55.617 340.9 7.1 337 11
2004-04-26 06:36:35 51°13.862 2°55.607 342.3 1.6 337 10.9
2004-04-26 06:36:39 51°13.871 2°55.603 342.7 4.9 337 10.8
2004-04-26 06:36:43 51°13.88 2°55.597 342.8 8.4 337 10.9
2004-04-26 06:36:49 51°13.892 2°55.589 342.8 8.2 337 10.9
2004-04-26 06:36:53 51°13.901 2°55.583 342.9 8.2 337 10.7
2004-04-26 06:36:59 51°13.913 2°55.575 343 8.2 337 10.6
2004-04-26 06:37:04 51°13.924 2°55.568 342.9 8.3 336 10.9
2004-04-26 06:37:09 51°13.934 2°55.56 342.2 8.3 336 10.8
2004-04-26 06:37:14 51°13.945 2°55.553 342.1 8.3 336 11.2
2004-04-26 06:37:19 51°13.956 2°55.545 342.1 8.3 336 11.4
2004-04-26 06:37:25 51°13.968 2°55.536 341.8 8.4 336 11.5
2004-04-26 06:37:29 51°13.977 2°55.53 341.8 8.4 336 11.4
2004-04-26 06:37:34 51°13.987 2°55.522 342 8.4 336 11.3
2004-04-26 06:37:39 51°13.998 2°55.515 341.9 8.4 336 11.5
2004-04-26 06:37:43 51°14.007 2°55.508 341.7 8.5 336 12.2
2004-04-26 06:37:49 51°14.019 2°55.499 341.2 8.5 335 11.9
2004-04-26 06:37:54 51°14.03 2°55.491 341.2 8.5 336 12.1
2004-04-26 06:37:59 51°14.041 2°55.483 341.7 8.5 336 12.3
2004-04-26 06:38:04 51°14.052 2°55.475 341.5 8.5 335 12.4
2004-04-26 06:38:09 51°14.062 2°55.467 340.9 8.5 335 12.4
2004-04-26 06:38:14 51°14.073 2°55.459 340.8 8.5 335 12.3
2004-04-26 06:38:19 51°14.084 2°55.451 341 8.5 335 12.3
2004-04-26 06:38:24 51°14.095 2°55.443 340.6 8.6 335 12.1
2004-04-26 06:38:29 51°14.106 2°55.434 340.3 9 334 12.2
2004-04-26 06:38:34 51°14.118 2°55.425 340.2 9.3 335 12.1
2004-04-26 06:38:39 51°14.13 2°55.416 339.9 9.6 334 12.1
2004-04-26 06:38:43 51°14.14 2°55.407 338.5 10.1 331 12.1
2004-04-26 06:38:48 51°14.153 2°55.396 338 10.6 332 12.2
2004-04-26 06:38:54 51°14.168 2°55.382 338.2 10.9 330 12.2
2004-04-26 06:38:59 51°14.182 2°55.369 336.7 11.1 329 12.2
2004-04-26 06:39:05 51°14.197 2°55.352 334.5 11.4 326 12.2
2004-04-26 06:39:09 51°14.208 2°55.34 333.1 11.5 326 12.1
2004-04-26 06:39:13 51°14.219 2°55.328 331.5 11.8 323 12.1
2004-04-26 06:39:19 51°14.234 2°55.307 329.1 12 322 12.1
2004-04-26 06:39:24 51°14.247 2°55.29 327.3 12.2 320 12.1
2004-04-26 06:39:29 51°14.26 2°55.271 326.1 12.5 318 12.1
2004-04-26 06:39:34 51°14.272 2°55.252 324.3 12.6 316 12
2004-04-26 06:39:39 51°14.285 2°55.231 321.9 12.7 314 12.1
2004-04-26 06:39:43 51°14.294 2°55.215 320 12.8 313 12.2
2004-04-26 06:39:49 51°14.308 2°55.188 318.3 13 310 12.2
2004-04-26 06:39:53 51°14.317 2°55.17 316.8 13 309 12.1
2004-04-26 06:39:59 51°14.331 2°55.144 315.8 13.1 310 11.9
2004-04-26 06:40:03 51°14.34 2°55.126 315.7 13.2 309 11.8
2004-04-26 06:40:09 51°14.355 2°55.099 316.1 13.2 310 11.4
2004-04-26 06:40:14 51°14.366 2°55.076 315.5 13.3 308 11.6
2004-04-26 06:40:19 51°14.377 2°55.052 314.7 13.5 308 11.9
2004-04-26 06:40:25 51°14.391 2°55.023 314.2 13.6 308 12.1
2004-04-26 06:40:29 51°14.401 2°55.005 314.1 13.8 309 11.9
2004-04-26 06:40:34 51°14.413 2°54.982 315 13.8 311 11.7
2004-04-26 06:40:39 51°14.427 2°54.959 317.1 13.9 312 11.9
2004-04-26 06:40:44 51°14.441 2°54.938 320.1 13.9 315 11.7
2004-04-26 06:40:49 51°14.454 2°54.917 322 13.9 316 11.6
2004-04-26 06:40:54 51°14.469 2°54.895 322.7 13.9 317 11.4
2004-04-26 06:40:59 51°14.483 2°54.874 323.3 13.9 317 11.2
2004-04-26 06:41:05 51°14.5 2°54.849 323.9 13.9 318 11.2
2004-04-26 06:41:09 51°14.512 2°54.833 324.4 14 318 11
2004-04-26 06:41:14 51°14.526 2°54.812 324.7 13.9 318 11
2004-04-26 06:41:19 51°14.541 2°54.792 325.1 13.9 319 11
2004-04-26 06:41:24 51°14.556 2°54.771 325.1 13.9 318 11
2004-04-26 06:41:29 51°14.57 2°54.751 325.1 14 318 10.9
2004-04-26 06:41:33 51°14.582 2°54.734 324.7 14 318 11
2004-04-26 06:41:39 51°14.599 2°54.709 324.3 14 318 10.8
2004-04-26 06:41:45 51°14.617 2°54.685 324.2 13.9 318 10.8
2004-04-26 06:41:49 51°14.629 2°54.669 325.2 13.9 320 10.7
2004-04-26 06:41:54 51°14.644 2°54.65 326.2 14 321 10.7
2004-04-26 06:41:59 51°14.659 2°54.631 327.5 14 322 10.7
2004-04-26 06:42:03 51°14.672 2°54.617 328.9 14 324 10.8
2004-04-26 06:42:09 51°14.691 2°54.595 330.2 14 324 10.7
2004-04-26 06:42:13 51°14.703 2°54.581 330.6 14 325 10.8
2004-04-26 06:42:18 51°14.72 2°54.563 331 14 325 10.7
2004-04-26 06:42:24 51°14.739 2°54.542 331.5 14 325 10.7
2004-04-26 06:42:29 51°14.754 2°54.524 331.5 14 325 10.7
2004-04-26 06:42:37 51°14.78 2°54.495 331.1 14.1 325 10.8
2004-04-26 06:42:43 51°14.799 2°54.474 331.1 14 325 10.8
2004-04-26 06:42:49 51°14.818 2°54.453 331.2 14.1 325 10.6
2004-04-26 06:42:54 51°14.835 2°54.435 331.5 14.1 325 10.6
2004-04-26 06:42:59 51°14.851 2°54.418 331.5 14.1 326 10.6
2004-04-26 06:43:04 51°14.867 2°54.401 331.6 14.1 326 10.5
2004-04-26 06:43:09 51°14.883 2°54.383 331.8 14 326 10.3
2004-04-26 06:43:13 51°14.896 2°54.369 331.9 14.1 326 10.2
2004-04-26 06:43:19 51°14.915 2°54.348 331.8 14 326 10.1
2004-04-26 06:43:25 51°14.934 2°54.327 331.5 14 326 9.9
2004-04-26 06:43:29 51°14.947 2°54.313 331.1 14 326 9.8
2004-04-26 06:43:34 51°14.964 2°54.297 330.9 13.9 327 9.7
2004-04-26 06:43:39 51°14.98 2°54.28 331.6 13.9 327 9.5
2004-04-26 06:43:43 51°14.993 2°54.267 331.9 13.9 327 9.6
2004-04-26 06:43:49 51°15.012 2°54.247 332.2 13.9 327 9.6
2004-04-26 06:43:53 51°15.025 2°54.233 332.1 13.9 326 9.6
2004-04-26 06:43:58 51°15.04 2°54.216 331.5 13.8 325 9.6
2004-04-26 06:44:04 51°15.059 2°54.194 330.4 13.8 324 9.7
2004-04-26 06:44:09 51°15.075 2°54.176 329.7 13.8 323 9.8
2004-04-26 06:44:19 51°15.105 2°54.139 329 13.9 323 9.9
2004-04-26 06:44:24 51°15.121 2°54.12 329 13.9 323 10
2004-04-26 06:44:29 51°15.136 2°54.102 329.5 14 324 10
2004-04-26 06:44:34 51°15.152 2°54.084 330.1 14 324 10.1
2004-04-26 06:44:39 51°15.168 2°54.066 330.4 13.9 324 10.1
2004-04-26 06:44:44 51°15.184 2°54.049 330.7 13.9 325 10.1
2004-04-26 06:44:49 51°15.199 2°54.031 330.9 13.9 325 10.2
2004-04-26 06:44:53 51°15.212 2°54.017 330.9 13.9 325 10.3
2004-04-26 06:44:59 51°15.231 2°53.995 330.9 13.9 324 10.3
2004-04-26 06:45:05 51°15.249 2°53.973 330.9 13.9 324 10.4
2004-04-26 06:45:09 51°15.262 2°53.958 330.4 13.9 324 10.4
2004-04-26 06:45:14 51°15.277 2°53.94 330.1 13.9 323 10.5
2004-04-26 06:45:19 51°15.293 2°53.922 329.8 13.9 323 10.6
2004-04-26 06:45:25 51°15.312 2°53.9 330 13.9 324 10.8
2004-04-26 06:45:29 51°15.324 2°53.886 330.2 13.9 325 10.9
2004-04-26 06:45:33 51°15.337 2°53.872 330.8 13.9 325 10.8
2004-04-26 06:45:39 51°15.356 2°53.85 330.9 13.9 324 11
2004-04-26 06:45:45 51°15.375 2°53.828 330.8 13.9 324 10.9
2004-04-26 06:45:49 51°15.387 2°53.814 330.4 13.9 324 10.9
2004-04-26 06:45:53 51°15.399 2°53.799 330.1 13.9 324 11.2
2004-04-26 06:45:58 51°15.415 2°53.781 330 13.9 324 11.1
2004-04-26 06:46:03 51°15.43 2°53.763 329.9 13.9 324 11.1
2004-04-26 06:46:09 51°15.449 2°53.741 330.1 13.9 324 11.2
2004-04-26 06:46:14 51°15.465 2°53.723 330.2 13.9 324 11.3
2004-04-26 06:46:19 51°15.481 2°53.705 330.4 13.9 324 11.4
2004-04-26 06:46:24 51°15.497 2°53.687 330.4 13.9 325 11.5
2004-04-26 06:46:29 51°15.513 2°53.67 330.4 14 325 11.5
2004-04-26 06:46:34 51°15.529 2°53.652 331 14 326 11.6
2004-04-26 06:46:39 51°15.545 2°53.635 331.6 14 326 11.7
2004-04-26 06:46:45 51°15.564 2°53.615 332.3 14 327 11.8
2004-04-26 06:46:49 51°15.577 2°53.601 332.6 14 327 11.8
2004-04-26 06:46:54 51°15.594 2°53.584 332.7 14 327 11.9
2004-04-26 06:46:59 51°15.61 2°53.567 332.6 14 327 11.9
2004-04-26 06:47:03 51°15.623 2°53.553 332.3 14.1 327 12
2004-04-26 06:47:09 51°15.642 2°53.533 332.2 14.1 326 12.1
2004-04-26 06:47:13 51°15.656 2°53.519 331.9 14 326 12.1
2004-04-26 06:47:19 51°15.675 2°53.498 331.9 14 326 12.2
2004-04-26 06:47:25 51°15.695 2°53.478 331.9 14 327 12.2
2004-04-26 06:47:29 51°15.708 2°53.465 332.1 14 327 12.2
2004-04-26 06:47:34 51°15.724 2°53.447 332.3 14 327 12.3
2004-04-26 06:47:39 51°15.74 2°53.43 332.3 14 327 12.3
2004-04-26 06:47:45 51°15.76 2°53.41 332 14 326 12.4
2004-04-26 06:47:49 51°15.773 2°53.397 332.5 14 328 12.4
2004-04-26 06:47:53 51°15.786 2°53.385 333.3 14 329 12.6
2004-04-26 06:47:59 51°15.807 2°53.366 334.1 14 329 12.6
2004-04-26 06:48:03 51°15.82 2°53.354 335.3 14 331 12.5
2004-04-26 06:48:09 51°15.84 2°53.336 336.3 14 331 12.6
2004-04-26 06:48:14 51°15.858 2°53.322 336.8 14 332 12.6
2004-04-26 06:48:19 51°15.875 2°53.307 337.4 14 333 12.6
2004-04-26 06:48:25 51°15.896 2°53.291 337.7 14 333 12.6
2004-04-26 06:48:30 51°15.914 2°53.277 338.2 14 334 12.7
2004-04-26 06:48:33 51°15.924 2°53.269 339 14 334 12.7
2004-04-26 06:48:38 51°15.942 2°53.256 339.6 14 335 12.8
2004-04-26 06:48:44 51°15.963 2°53.24 339.9 14 335 12.8
2004-04-26 06:48:49 51°15.981 2°53.227 340.1 14 335 12.9
2004-04-26 06:48:53 51°15.995 2°53.216 340.1 14 335 12.9
2004-04-26 06:48:59 51°16.016 2°53.2 339.8 14 335 12.9
2004-04-26 06:49:03 51°16.03 2°53.19 339.6 14 334 13
2004-04-26 06:49:09 51°16.051 2°53.174 339.3 14 334 13
2004-04-26 06:49:14 51°16.068 2°53.16 339.2 14 334 13
2004-04-26 06:49:19 51°16.085 2°53.146 339 14 334 13.1
2004-04-26 06:49:24 51°16.103 2°53.133 339.2 14 334 13.1
2004-04-26 06:49:29 51°16.12 2°53.12 339.5 13.9 335 13.2
2004-04-26 06:49:34 51°16.138 2°53.107 339.6 14 334 13.2
2004-04-26 06:49:39 51°16.155 2°53.093 339.6 14 334 13.2
2004-04-26 06:49:43 51°16.169 2°53.082 339.4 14 334 13.3
2004-04-26 06:49:49 51°16.19 2°53.066 339.2 14 334 13.3
2004-04-26 06:49:54 51°16.207 2°53.052 339.1 14 334 13.3
2004-04-26 06:49:59 51°16.225 2°53.039 339.3 14 334 13.3
2004-04-26 06:50:04 51°16.242 2°53.025 339.6 14 334 13.3
2004-04-26 06:50:09 51°16.26 2°53.012 339.6 14.1 334 13.3
2004-04-26 06:50:13 51°16.274 2°53.001 339.6 14.1 334 13.3
2004-04-26 06:50:19 51°16.295 2°52.984 339.1 14.1 334 13.3
2004-04-26 06:50:25 51°16.316 2°52.968 338.9 14.1 334 13.3
2004-04-26 06:50:29 51°16.33 2°52.957 338.9 14.1 334 13.3
2004-04-26 06:50:34 51°16.348 2°52.943 339.2 14.1 334 13.4
2004-04-26 06:50:39 51°16.366 2°52.93 339.5 14.1 334 13.3
2004-04-26 06:50:44 51°16.384 2°52.916 339.7 14.1 335 13.3
2004-04-26 06:50:48 51°16.398 2°52.906 340 14.1 335 13.2
2004-04-26 06:50:53 51°16.416 2°52.893 340 14.1 335 13.3
2004-04-26 06:50:59 51°16.437 2°52.877 339.9 14.1 335 13.2
2004-04-26 06:51:05 51°16.458 2°52.86 339.6 14.1 335 13.1
2004-04-26 06:51:09 51°16.472 2°52.85 339.2 14.1 335 13.1
2004-04-26 06:51:14 51°16.489 2°52.836 339.2 14.1 335 13
2004-04-26 06:51:19 51°16.507 2°52.823 339.2 14.1 334 12.9
2004-04-26 06:51:25 51°16.528 2°52.806 339 14.1 334 12.8
2004-04-26 06:51:29 51°16.542 2°52.796 339 14.1 334 12.7
2004-04-26 06:51:34 51°16.559 2°52.782 339.1 14.1 335 12.6
2004-04-26 06:51:39 51°16.577 2°52.769 339.4 14.1 334 12.5
2004-04-26 06:51:43 51°16.591 2°52.758 339.4 14.2 335 12.4
2004-04-26 06:51:49 51°16.612 2°52.742 339.4 14.2 335 12.4
2004-04-26 06:51:53 51°16.627 2°52.732 339.4 14.2 335 12.3
2004-04-26 06:51:59 51°16.648 2°52.716 339.5 14.2 335 12.1
2004-04-26 06:52:04 51°16.666 2°52.703 339.5 14.2 335 12
2004-04-26 06:52:09 51°16.683 2°52.689 339.1 14.1 335 11.6
2004-04-26 06:52:14 51°16.701 2°52.676 339 14.1 335 11.4
2004-04-26 06:52:19 51°16.719 2°52.663 339.3 14.1 335 11.3
2004-04-26 06:52:25 51°16.74 2°52.647 339.4 14.1 335 11.1
2004-04-26 06:52:29 51°16.755 2°52.636 339.4 14.1 335 10.6
2004-04-26 06:52:34 51°16.773 2°52.623 339.2 14.1 335 10.7
2004-04-26 06:52:39 51°16.79 2°52.61 339.1 14 335 10.9
2004-04-26 06:52:41 51°16.797 2°52.604 338.8 14 335 10.8
2004-04-26 06:52:49 51°16.825 2°52.583 338.9 14.1 335 10.7
2004-04-26 06:52:54 51°16.843 2°52.57 339.2 14.1 335 10.5
2004-04-26 06:52:58 51°16.857 2°52.559 339.2 14.1 335 10.6
2004-04-26 06:53:03 51°16.875 2°52.546 339.2 14.1 335 10.7
2004-04-26 06:53:09 51°16.896 2°52.53 339.3 14.1 334 10.9
2004-04-26 06:53:13 51°16.91 2°52.519 338.9 14.1 334 11.1
2004-04-26 06:53:19 51°16.931 2°52.502 338.8 14.2 334 11
2004-04-26 06:53:25 51°16.952 2°52.486 338.9 14.2 334 10.8
2004-04-26 06:53:29 51°16.966 2°52.475 339 14.1 335 10.4
2004-04-26 06:53:34 51°16.984 2°52.462 339.2 14.1 335 10.5
2004-04-26 06:53:39 51°17.001 2°52.449 339.7 14.1 335 10.3
2004-04-26 06:53:45 51°17.022 2°52.433 339.8 14.1 335 10.6
2004-04-26 06:53:49 51°17.036 2°52.422 339.6 14.1 334 10.6
2004-04-26 06:53:54 51°17.054 2°52.408 339 14.1 334 10.7
2004-04-26 06:53:59 51°17.071 2°52.394 339 14.1 334 10.7
2004-04-26 06:54:05 51°17.093 2°52.378 339 14.1 334 10.8
2004-04-26 06:54:09 51°17.107 2°52.367 339.2 14.1 334 10.7
2004-04-26 06:54:13 51°17.121 2°52.356 339.2 14.1 334 11
2004-04-26 06:54:19 51°17.142 2°52.34 339.5 14.1 334 10.9
2004-04-26 06:54:25 51°17.163 2°52.323 339.6 14.1 334 11
2004-04-26 06:54:29 51°17.177 2°52.312 339.6 14.1 333 10.9
2004-04-26 06:54:33 51°17.191 2°52.301 339 14.1 333 11.2
2004-04-26 06:54:39 51°17.213 2°52.284 339 14.1 333 11
2004-04-26 06:54:45 51°17.233 2°52.267 338.9 14.1 333 11.2
2004-04-26 06:54:49 51°17.247 2°52.256 338.8 14.1 333 11.2
2004-04-26 06:54:54 51°17.265 2°52.242 338.9 14.2 334 11.3
2004-04-26 06:54:59 51°17.283 2°52.228 339.3 14.2 334 11.4
2004-04-26 06:55:03 51°17.297 2°52.217 339.5 14.2 334 11.4
2004-04-26 06:55:09 51°17.318 2°52.2 339.6 14.2 334 11.3
2004-04-26 06:55:13 51°17.332 2°52.19 339.7 14.2 334 11.3
2004-04-26 06:55:19 51°17.354 2°52.173 339.8 14.3 334 11.4
2004-04-26 06:55:25 51°17.375 2°52.156 339.8 14.2 334 11.5
2004-04-26 06:55:29 51°17.39 2°52.145 339.7 14.3 334 11.4
2004-04-26 06:55:33 51°17.404 2°52.134 339.5 14.2 333 11.4
2004-04-26 06:55:39 51°17.424 2°52.116 338.9 14.3 333 11.3
2004-04-26 06:55:44 51°17.441 2°52.099 336.6 14.3 329 11.4
2004-04-26 06:55:49 51°17.458 2°52.082 334.3 14.2 327 11.4
2004-04-26 06:55:53 51°17.471 2°52.067 332.4 14.1 324 11.2
2004-04-26 06:55:59 51°17.489 2°52.044 329.8 14.2 324 11.2
2004-04-26 06:56:05 51°17.506 2°52.019 326.4 14.2 319 11.5
2004-04-26 06:56:09 51°17.517 2°52.001 322.3 14.2 315 11.4
2004-04-26 06:56:12 51°17.525 2°51.987 319.3 14.1 312 11.3
2004-04-26 06:56:19 51°17.543 2°51.954 316.9 14.1 312 11.4
2004-04-26 06:56:25 51°17.558 2°51.925 315.2 14.2 309 11.4
2004-04-26 06:56:29 51°17.568 2°51.906 313.7 14.2 309 11.4
2004-04-26 06:56:33 51°17.578 2°51.886 313.1 14.2 309 11.2
2004-04-26 06:56:39 51°17.593 2°51.857 312.8 14.2 309 11.2
2004-04-26 06:56:43 51°17.602 2°51.837 312.3 14.1 308 11.3
2004-04-26 06:56:49 51°17.617 2°51.807 311.9 14.1 308 11.1
2004-04-26 06:56:52 51°17.624 2°51.793 311.6 14.1 308 11.1
2004-04-26 06:56:58 51°17.639 2°51.763 311.6 14.1 308 11.1
2004-04-26 06:57:02 51°17.649 2°51.744 312 14.1 309 11
2004-04-26 06:57:08 51°17.664 2°51.715 312.3 14.1 309 10.8
2004-04-26 06:57:12 51°17.673 2°51.695 312.5 14.1 309 10.8
2004-04-26 06:57:18 51°17.688 2°51.666 312.5 14.1 308 10.9
2004-04-26 06:57:22 51°17.698 2°51.647 312 14.1 308 10.9
2004-04-26 06:57:29 51°17.715 2°51.612 312 14.1 308 10.8
2004-04-26 06:57:33 51°17.724 2°51.593 312 14.1 309 10.9
2004-04-26 06:57:38 51°17.737 2°51.568 312.2 14.1 308 10.9
2004-04-26 06:57:44 51°17.752 2°51.54 312.4 14.2 309 10.8
2004-04-26 06:57:48 51°17.762 2°51.52 312.8 14.2 309 10.8
2004-04-26 06:57:52 51°17.772 2°51.501 313 14.1 309 10.9
2004-04-26 06:57:58 51°17.786 2°51.471 313 14.2 308 11
2004-04-26 06:58:02 51°17.796 2°51.452 312.7 14.1 308 11.1
2004-04-26 06:58:08 51°17.811 2°51.423 312.7 14.2 309 11.1
2004-04-26 06:58:12 51°17.821 2°51.403 312.8 14.2 309 11.2
2004-04-26 06:58:18 51°17.835 2°51.374 313 14.2 309 11.2
2004-04-26 06:58:24 51°17.85 2°51.345 313.2 14.2 309 11.3
2004-04-26 06:58:28 51°17.86 2°51.325 312.9 14.2 308 11.4
2004-04-26 06:58:32 51°17.87 2°51.305 312.8 14.2 309 11.4
2004-04-26 06:58:38 51°17.885 2°51.276 313.4 14.2 309 11.6
2004-04-26 06:58:42 51°17.895 2°51.257 313.6 14.2 310 11.7
2004-04-26 06:58:48 51°17.91 2°51.228 313.8 14.2 310 11.7
2004-04-26 06:58:53 51°17.923 2°51.204 314 14.2 309 12
2004-04-26 06:58:58 51°17.935 2°51.179 313.5 14.2 309 12
2004-04-26 06:59:04 51°17.95 2°51.15 313.4 14.2 309 12
2004-04-26 06:59:08 51°17.96 2°51.13 313.1 14.2 309 12.2
2004-04-26 06:59:13 51°17.972 2°51.105 312.9 14.2 309 12.4
2004-04-26 06:59:18 51°17.984 2°51.081 312.9 14.2 309 12.6
2004-04-26 06:59:21 51°17.992 2°51.066 313.4 14.2 309 12.7
2004-04-26 06:59:28 51°18.009 2°51.032 313.7 14.2 309 12.9
2004-04-26 06:59:33 51°18.022 2°51.008 314 14.2 309 13
2004-04-26 06:59:38 51°18.034 2°50.983 314.2 14.2 309 13
2004-04-26 06:59:41 51°18.042 2°50.968 314 14.2 308 13.1
2004-04-26 06:59:48 51°18.058 2°50.933 312.3 14.2 305 13.3
2004-04-26 06:59:52 51°18.067 2°50.912 310.1 14.2 304 13.4
2004-04-26 06:59:58 51°18.08 2°50.881 308.8 14.2 303 13.5
2004-04-26 07:00:02 51°18.088 2°50.859 307.3 14.1 302 13.6
2004-04-26 07:00:08 51°18.1 2°50.827 306.2 14.1 301 13.6
2004-04-26 07:00:13 51°18.11 2°50.801 305.7 14.1 301 13.6
2004-04-26 07:00:17 51°18.118 2°50.779 305.2 14.1 301 13.8
2004-04-26 07:00:22 51°18.128 2°50.752 304.9 14.1 301 13.8
2004-04-26 07:00:28 51°18.14 2°50.72 304.8 14.1 300 13.9
2004-04-26 07:00:33 51°18.15 2°50.693 304.6 14.1 301 14
2004-04-26 07:00:42 51°18.168 2°50.644 305.1 14.1 301 13.9
2004-04-26 07:00:47 51°18.178 2°50.617 305.4 14.1 301 14
2004-04-26 07:00:53 51°18.19 2°50.585 305.3 14.1 301 14.1
2004-04-26 07:00:58 51°18.2 2°50.558 305.1 14.1 300 14.3
2004-04-26 07:01:03 51°18.21 2°50.531 304.8 14.1 300 14.2
2004-04-26 07:01:08 51°18.22 2°50.504 304.7 14.2 300 14.5
2004-04-26 07:01:13 51°18.23 2°50.478 305.1 14.2 301 14.5
2004-04-26 07:01:18 51°18.241 2°50.451 305.6 14.1 302 14.8
2004-04-26 07:01:22 51°18.249 2°50.43 306 14.1 302 14.8
2004-04-26 07:01:29 51°18.263 2°50.392 306.1 14.1 301 14.8
2004-04-26 07:01:33 51°18.271 2°50.371 305.9 14.1 301 14.9
2004-04-26 07:01:38 51°18.281 2°50.344 305.4 14.1 300 14.9
2004-04-26 07:01:43 51°18.291 2°50.317 305.2 14.1 301 14.8
2004-04-26 07:01:47 51°18.299 2°50.296 305.4 14 301 14.9
2004-04-26 07:01:52 51°18.309 2°50.269 305.5 14 300 15
2004-04-26 07:01:58 51°18.321 2°50.237 305.5 14 301 15.1
2004-04-26 07:02:03 51°18.331 2°50.211 305.5 14 301 15.1
2004-04-26 07:02:09 51°18.342 2°50.179 305.5 14 301 14.9
2004-04-26 07:02:13 51°18.35 2°50.157 305.5 14 301 15
2004-04-26 07:02:18 51°18.36 2°50.13 305.5 14.1 301 15
2004-04-26 07:02:23 51°18.37 2°50.104 305.7 14.1 301 15.1
2004-04-26 07:02:27 51°18.378 2°50.083 305.8 14.1 301 15
2004-04-26 07:02:33 51°18.39 2°50.051 305.9 14.1 301 14.9
2004-04-26 07:02:37 51°18.399 2°50.029 305.9 14.1 301 14.7
2004-04-26 07:02:43 51°18.411 2°49.997 306 14.1 301 14.8
2004-04-26 07:02:47 51°18.419 2°49.976 306 14.1 302 14.8
2004-04-26 07:02:53 51°18.431 2°49.944 306.3 14.1 301 14.7
2004-04-26 07:02:58 51°18.442 2°49.917 306.3 14.2 302 14.6
2004-04-26 07:03:03 51°18.452 2°49.89 306.4 14.1 302 14.5
2004-04-26 07:03:07 51°18.46 2°49.869 306.4 14.1 302 14.3
2004-04-26 07:03:13 51°18.473 2°49.837 306.3 14.1 301 14
2004-04-26 07:03:23 51°18.493 2°49.784 306.1 14.1 301 13.9
2004-04-26 07:03:27 51°18.501 2°49.763 305.9 14.1 301 13.7
2004-04-26 07:03:33 51°18.513 2°49.73 305.9 14.1 300 13.6
2004-04-26 07:03:38 51°18.523 2°49.703 305.7 14.1 301 13.4
2004-04-26 07:03:43 51°18.533 2°49.676 305.6 14.1 301 13
2004-04-26 07:03:47 51°18.541 2°49.655 305.5 14.1 301 13.2
2004-04-26 07:03:53 51°18.553 2°49.623 305.5 14.1 301 12.8
2004-04-26 07:03:58 51°18.563 2°49.596 305.2 14.2 301 12.7
2004-04-26 07:04:02 51°18.571 2°49.575 305.9 14.2 302 12.3
2004-04-26 07:04:07 51°18.582 2°49.548 306 14.1 302 11.6
2004-04-26 07:04:13 51°18.594 2°49.516 306.2 14.1 302 11.7
2004-04-26 07:04:18 51°18.604 2°49.489 306.2 14.1 302 12
2004-04-26 07:04:23 51°18.614 2°49.463 306.2 14.1 301 11.8
2004-04-26 07:04:27 51°18.623 2°49.441 306.2 14.2 301 11.8
2004-04-26 07:04:33 51°18.635 2°49.409 306.1 14.2 301 11.5
2004-04-26 07:04:38 51°18.645 2°49.382 305.5 14.2 302 11.3
2004-04-26 07:04:43 51°18.655 2°49.355 305.9 14.2 302 11.2
2004-04-26 07:04:48 51°18.666 2°49.329 305.9 14.1 301 11.1
2004-04-26 07:04:53 51°18.676 2°49.302 305.9 14.2 302 11.2
2004-04-26 07:04:57 51°18.684 2°49.281 306.1 14.2 301 11.3
2004-04-26 07:05:03 51°18.696 2°49.249 306.1 14.2 302 11.6
2004-04-26 07:05:09 51°18.709 2°49.216 306.2 14.2 302 11.7
2004-04-26 07:05:13 51°18.717 2°49.195 306.2 14.3 302 12
2004-04-26 07:05:17 51°18.726 2°49.173 306.4 14.4 302 12
2004-04-26 07:05:22 51°18.736 2°49.146 306.4 14.3 302 12
2004-04-26 07:05:27 51°18.746 2°49.119 306.2 14.3 302 11.2
2004-04-26 07:05:33 51°18.759 2°49.087 306.2 14.2 301 11.6
2004-04-26 07:05:38 51°18.769 2°49.06 305.6 14.2 301 11.8
2004-04-26 07:05:43 51°18.779 2°49.033 305.9 14.2 302 11.5
2004-04-26 07:05:47 51°18.787 2°49.011 306.1 14.3 301 11.8
2004-04-26 07:05:53 51°18.8 2°48.979 306.2 14.3 301 11.8
2004-04-26 07:05:58 51°18.81 2°48.952 306.2 14.3 301 11.8
2004-04-26 07:06:03 51°18.821 2°48.925 305.9 14.2 302 12
2004-04-26 07:06:09 51°18.833 2°48.893 306.1 14.2 301 12.7
2004-04-26 07:06:13 51°18.841 2°48.872 306.5 14.2 302 13.2
2004-04-26 07:06:17 51°18.85 2°48.85 306.5 14.3 302 12.6
2004-04-26 07:06:23 51°18.862 2°48.818 306.5 14.3 302 13.4
2004-04-26 07:06:27 51°18.871 2°48.796 306.3 14.3 301 13.7
2004-04-26 07:06:33 51°18.883 2°48.764 306.2 14.3 302 13.4
2004-04-26 07:06:43 51°18.904 2°48.71 306.2 14.2 301 14.4
2004-04-26 07:06:47 51°18.912 2°48.689 306.2 14.3 302 14.6
2004-04-26 07:06:53 51°18.925 2°48.657 306.3 14.2 302 14.7
2004-04-26 07:06:57 51°18.933 2°48.635 306.5 14.2 302 14.8
2004-04-26 07:07:03 51°18.946 2°48.603 306.5 14.2 302 14.9
2004-04-26 07:07:07 51°18.954 2°48.582 306.6 14.2 302 14.9
2004-04-26 07:07:13 51°18.967 2°48.55 306.6 14.2 302 14.9
2004-04-26 07:07:18 51°18.977 2°48.523 306.6 14.2 302 15
2004-04-26 07:07:23 51°18.987 2°48.497 306.5 14.2 302 15.4
2004-04-26 07:07:28 51°18.998 2°48.47 306.7 14.2 302 15.7
2004-04-26 07:07:33 51°19.009 2°48.444 306.7 14.2 302 16
2004-04-26 07:07:38 51°19.019 2°48.417 306.6 14.2 302 16.2
2004-04-26 07:07:42 51°19.027 2°48.396 306.2 14.2 302 16.5
2004-04-26 07:07:49 51°19.042 2°48.358 306.1 14.2 301 16.8
2004-04-26 07:07:51 51°19.046 2°48.347 305.9 14.2 302 17
2004-04-26 07:07:58 51°19.061 2°48.31 305.9 14.2 302 17.3
2004-04-26 07:08:02 51°19.069 2°48.289 306.2 14.2 302 17.5
2004-04-26 07:08:09 51°19.084 2°48.251 306.3 14.2 302 17.7
2004-04-26 07:08:13 51°19.093 2°48.23 306.7 14.2 302 17.8
2004-04-26 07:08:18 51°19.103 2°48.203 306.9 14.2 303 18
2004-04-26 07:08:23 51°19.114 2°48.177 306.4 14.3 302 18.1
2004-04-26 07:08:29 51°19.126 2°48.144 306.4 14.3 302 18.2
2004-04-26 07:08:33 51°19.135 2°48.123 306 14.3 302 18.4
2004-04-26 07:08:38 51°19.145 2°48.096 305.8 14.3 302 18.6
2004-04-26 07:08:43 51°19.156 2°48.069 305.8 14.3 302 18.8
2004-04-26 07:08:47 51°19.164 2°48.047 305.8 14.3 302 19
2004-04-26 07:08:53 51°19.177 2°48.015 305.9 14.3 302 19.2
2004-04-26 07:08:58 51°19.187 2°47.988 305.9 14.3 302 19.4
2004-04-26 07:09:03 51°19.198 2°47.961 305.7 14.3 302 19.6
2004-04-26 07:09:07 51°19.206 2°47.94 306.2 14.3 302 19.7
2004-04-26 07:09:13 51°19.219 2°47.908 306.2 14.3 302 19.9
2004-04-26 07:09:18 51°19.23 2°47.881 305.9 14.3 302 20.1
2004-04-26 07:09:23 51°19.241 2°47.854 305.9 14.3 302 20.4
2004-04-26 07:09:26 51°19.247 2°47.838 306.3 14.3 303 20.5
2004-04-26 07:09:33 51°19.262 2°47.801 306.3 14.3 303 20.7
2004-04-26 07:09:37 51°19.271 2°47.779 306.4 14.3 302 20.9
2004-04-26 07:09:43 51°19.284 2°47.747 306.4 14.3 303 21
2004-04-26 07:09:49 51°19.297 2°47.715 306.5 14.3 303 21.2
2004-04-26 07:09:53 51°19.305 2°47.694 306.4 14.3 303 21.3
2004-04-26 07:09:57 51°19.314 2°47.672 306 14.3 302 21.5
2004-04-26 07:10:03 51°19.326 2°47.64 305.7 14.3 303 21.7
2004-04-26 07:10:05 51°19.331 2°47.63 306 14.3 303 21.8
2004-04-26 07:10:13 51°19.348 2°47.587 306.3 14.3 303 21.9
2004-04-26 07:10:18 51°19.359 2°47.56 306.5 14.3 303 22.1
2004-04-26 07:10:22 51°19.368 2°47.539 306.5 14.3 304 22.1
2004-04-26 07:10:27 51°19.379 2°47.513 306.5 14.3 303 22.1
2004-04-26 07:10:33 51°19.392 2°47.481 306.2 14.3 303 22.1
2004-04-26 07:10:38 51°19.403 2°47.454 306.2 14.3 303 22.2
2004-04-26 07:10:42 51°19.412 2°47.433 306.2 14.3 303 22.2
2004-04-26 07:10:49 51°19.427 2°47.396 305.6 14.3 302 22.2
2004-04-26 07:10:53 51°19.435 2°47.374 305.6 14.3 302 22.3
2004-04-26 07:10:58 51°19.446 2°47.348 305.5 14.3 303 22.2
2004-04-26 07:11:02 51°19.455 2°47.327 305.8 14.3 303 22.2
2004-04-26 07:11:07 51°19.466 2°47.3 306.1 14.3 303 22.2
2004-04-26 07:11:13 51°19.479 2°47.268 306.2 14.3 303 22.2
2004-04-26 07:11:18 51°19.488 2°47.241 305.5 14.2 301 22.2
2004-04-26 07:11:21 51°19.494 2°47.225 304.8 14.2 300 22.1
2004-04-26 07:11:27 51°19.506 2°47.193 304.6 14 300 22.3
2004-04-26 07:11:33 51°19.518 2°47.161 304.9 14 301 22.3
2004-04-26 07:11:37 51°19.527 2°47.14 305.5 14 302 22.3
2004-04-26 07:11:43 51°19.539 2°47.108 306.1 14 302 22.2
2004-04-26 07:11:47 51°19.547 2°47.088 306.2 14 302 22.2
2004-04-26 07:11:53 51°19.559 2°47.056 306.5 14 302 22.3
2004-04-26 07:11:57 51°19.568 2°47.035 306.5 14 302 22.3
2004-04-26 07:12:03 51°19.58 2°47.004 306.7 13.9 302 22.3
2004-04-26 07:12:09 51°19.592 2°46.972 306.7 13.9 301 22
2004-04-26 07:12:13 51°19.6 2°46.951 306.4 13.9 302 22
2004-04-26 07:12:18 51°19.61 2°46.925 306.2 13.9 302 21.8
2004-04-26 07:12:23 51°19.62 2°46.899 306.3 13.9 301 21.6
2004-04-26 07:12:26 51°19.626 2°46.883 306.1 13.9 302 21.6
2004-04-26 07:12:33 51°19.64 2°46.846 306.5 13.9 301 21.6
2004-04-26 07:12:38 51°19.651 2°46.82 306.3 13.9 302 21.3
2004-04-26 07:12:43 51°19.661 2°46.794 306.4 13.9 302 20.7
2004-04-26 07:12:47 51°19.669 2°46.773 306.7 13.9 302 20.8
2004-04-26 07:12:53 51°19.681 2°46.742 306.4 13.9 302 20.9
2004-04-26 07:12:57 51°19.689 2°46.721 306.7 13.9 302 20.1
2004-04-26 07:13:02 51°19.699 2°46.694 306.2 13.9 301 19.7
2004-04-26 07:13:07 51°19.709 2°46.668 306.4 13.9 302 20.5
2004-04-26 07:13:13 51°19.721 2°46.637 306.3 13.9 301 20.4
2004-04-26 07:13:18 51°19.731 2°46.61 306.2 14 301 20.2
2004-04-26 07:13:23 51°19.741 2°46.584 306.1 14 302 19.7
2004-04-26 07:13:27 51°19.749 2°46.563 306.4 13.9 301 18.5
2004-04-26 07:13:33 51°19.761 2°46.531 306.2 14 302 19.5
2004-04-26 07:13:38 51°19.771 2°46.505 306.5 14 301 19.2
2004-04-26 07:13:41 51°19.777 2°46.488 306.4 14 301 18.7
2004-04-26 07:13:49 51°19.793 2°46.446 306.6 14 302 18.2
2004-04-26 07:13:53 51°19.801 2°46.425 306.8 14 301 17.6
2004-04-26 07:13:57 51°19.809 2°46.404 306.3 14 302 16.5
2004-04-26 07:14:03 51°19.821 2°46.372 306.5 14 301 15.9
2004-04-26 07:14:07 51°19.83 2°46.351 306.9 14 302 17.3
2004-04-26 07:14:13 51°19.842 2°46.32 306.4 14 301 17.4
2004-04-26 07:14:17 51°19.85 2°46.299 307 14.1 302 17
2004-04-26 07:14:22 51°19.86 2°46.272 306.8 14.1 301 16.4
2004-04-26 07:14:26 51°19.869 2°46.251 306.5 14.1 302 15.8
2004-04-26 07:14:33 51°19.883 2°46.214 306.4 14.1 303 15.2
2004-04-26 07:14:38 51°19.893 2°46.187 306.8 14 302 14
2004-04-26 07:14:42 51°19.901 2°46.166 306.8 14 300 12.2
2004-04-26 07:14:47 51°19.911 2°46.139 306 13.9 300 14
2004-04-26 07:14:53 51°19.919 2°46.105 302.7 13.8 292 12.9
2004-04-26 07:14:58 51°19.926 2°46.076 297.6 13.9 291 14.9
2004-04-26 07:15:03 51°19.932 2°46.047 294.4 13.9 288 13
2004-04-26 07:15:07 51°19.935 2°46.023 291.4 14 286 14.5
2004-04-26 07:15:13 51°19.941 2°45.987 288.9 14 284 15.2
2004-04-26 07:15:18 51°19.945 2°45.956 287.9 14 283 14.7
2004-04-26 07:15:23 51°19.949 2°45.926 286.9 14 282 12.2
2004-04-26 07:15:27 51°19.952 2°45.902 285.8 14 281 14.9
2004-04-26 07:15:33 51°19.957 2°45.865 285.6 14 282 14.3
2004-04-26 07:15:37 51°19.96 2°45.841 285.6 14 282 15.4
2004-04-26 07:15:42 51°19.964 2°45.811 285.7 14.1 282 15.1
2004-04-26 07:15:46 51°19.967 2°45.786 285.5 14.1 282 16
2004-04-26 07:15:52 51°19.972 2°45.75 285.1 14.1 281 15.5
2004-04-26 07:15:57 51°19.976 2°45.719 285.1 14 282 14.6
2004-04-26 07:16:02 51°19.98 2°45.689 285.7 13.9 283 12.9
2004-04-26 07:16:07 51°19.985 2°45.659 285.9 13.9 283 14.9
2004-04-26 07:16:12 51°19.989 2°45.629 286.2 13.9 283 15.2
2004-04-26 07:16:17 51°19.993 2°45.599 285.9 13.9 282 15.7
2004-04-26 07:16:22 51°19.997 2°45.569 285.3 14 282 16.7
2004-04-26 07:16:27 51°20.001 2°45.539 284.9 14 282 18.5
2004-04-26 07:16:33 51°20.006 2°45.503 284.9 14 283 19
2004-04-26 07:16:37 51°20.01 2°45.479 285.6 13.9 284 19.9
2004-04-26 07:16:42 51°20.014 2°45.449 286.5 13.9 284 20.7
2004-04-26 07:16:48 51°20.02 2°45.413 286.5 13.9 283 21.3
2004-04-26 07:16:52 51°20.023 2°45.389 286.3 13.8 284 21.8
2004-04-26 07:16:56 51°20.026 2°45.365 285.6 13.8 283 22
2004-04-26 07:17:02 51°20.031 2°45.33 285.4 13.8 283 22.3
2004-04-26 07:17:07 51°20.036 2°45.3 285.5 13.8 283 22.7
2004-04-26 07:17:13 51°20.041 2°45.264 285.9 13.7 283 22.9
2004-04-26 07:17:17 51°20.045 2°45.241 286.1 13.7 283 23.1
2004-04-26 07:17:22 51°20.049 2°45.211 286.6 13.7 284 23.3
2004-04-26 07:17:27 51°20.053 2°45.181 286.6 13.7 282 23.3
2004-04-26 07:17:33 51°20.058 2°45.145 286.2 13.8 283 23.6
2004-04-26 07:17:38 51°20.063 2°45.116 286 13.8 283 23.7
2004-04-26 07:17:41 51°20.065 2°45.098 286.2 13.8 283 23.8
2004-04-26 07:17:47 51°20.071 2°45.062 286.7 13.8 284 24
2004-04-26 07:17:53 51°20.077 2°45.027 287.3 13.8 284 24
2004-04-26 07:17:57 51°20.081 2°45.003 287.6 13.8 285 24.2
2004-04-26 07:18:02 51°20.085 2°44.974 287.7 13.8 285 24.2
2004-04-26 07:18:07 51°20.09 2°44.944 287.1 13.8 284 24.3
2004-04-26 07:18:13 51°20.095 2°44.908 286.6 13.8 284 24.5
2004-04-26 07:18:23 51°20.104 2°44.849 285.9 13.8 283 24.2
2004-04-26 07:18:27 51°20.107 2°44.825 286.2 13.9 284 24.2
2004-04-26 07:18:33 51°20.113 2°44.789 287.1 13.8 285 24.3
2004-04-26 07:18:37 51°20.117 2°44.765 287.6 13.9 284 24
2004-04-26 07:18:42 51°20.122 2°44.736 287.4 13.9 284 24.3
2004-04-26 07:18:47 51°20.126 2°44.706 287.2 13.9 284 24.5
2004-04-26 07:18:53 51°20.132 2°44.67 286.4 13.9 283 24.4
2004-04-26 07:18:57 51°20.136 2°44.646 286.5 14 285 24.4
2004-04-26 07:19:02 51°20.14 2°44.616 287.3 13.9 284 24.7
2004-04-26 07:19:07 51°20.145 2°44.586 287.3 13.9 284 24.8
2004-04-26 07:19:13 51°20.151 2°44.55 286.9 13.9 284 25
2004-04-26 07:19:17 51°20.154 2°44.527 286.7 13.9 284 25.1
2004-04-26 07:19:22 51°20.159 2°44.497 286.4 13.8 283 23.7
2004-04-26 07:19:29 51°20.165 2°44.455 286.6 13.8 284 23.7
2004-04-26 07:19:33 51°20.169 2°44.431 286.7 13.8 284 24.6
2004-04-26 07:19:38 51°20.174 2°44.402 287.3 13.9 285 24.9
2004-04-26 07:19:42 51°20.177 2°44.378 287.1 13.8 284 25.5
2004-04-26 07:19:47 51°20.182 2°44.348 286.7 13.8 284 25.7
2004-04-26 07:19:53 51°20.187 2°44.312 286.6 13.9 283 25.9
2004-04-26 07:19:57 51°20.191 2°44.288 286.5 13.9 284 26.1
2004-04-26 07:20:02 51°20.196 2°44.258 287.1 13.9 285 26.4
2004-04-26 07:20:07 51°20.201 2°44.229 287.8 13.9 285 26.6
2004-04-26 07:20:11 51°20.205 2°44.205 287.5 13.9 285 26.7
2004-04-26 07:20:18 51°20.212 2°44.163 287.6 13.9 286 26.8
2004-04-26 07:20:23 51°20.219 2°44.134 289.6 13.9 288 27
2004-04-26 07:20:27 51°20.224 2°44.112 292.8 13.9 291 27.1
2004-04-26 07:20:33 51°20.234 2°44.078 295.6 13.9 295 27.4
2004-04-26 07:20:38 51°20.242 2°44.05 297.3 13.9 294 27.1
2004-04-26 07:20:43 51°20.251 2°44.022 298.3 14 295 27.3
2004-04-26 07:20:49 51°20.261 2°43.988 299.5 14.1 297 27.1
2004-04-26 07:20:53 51°20.268 2°43.966 300.4 14 297 27.1
2004-04-26 07:20:57 51°20.275 2°43.944 300.6 14 297 27.1
2004-04-26 07:21:02 51°20.284 2°43.916 300.2 14.1 297 26.8
2004-04-26 07:21:09 51°20.297 2°43.878 300.4 14.1 297 27.2
2004-04-26 07:21:13 51°20.304 2°43.856 301.1 14 297 27.1
2004-04-26 07:21:18 51°20.312 2°43.828 301 14 297 27.2
2004-04-26 07:21:23 51°20.321 2°43.8 300 14 296 27.5
2004-04-26 07:21:38 51°20.347 2°43.716 300.3 14.1 296 27.5
2004-04-26 07:21:43 51°20.355 2°43.688 299.9 14.1 296 27.4
2004-04-26 07:21:47 51°20.362 2°43.665 299.5 14.1 296 27.3
2004-04-26 07:21:53 51°20.372 2°43.632 299.5 14.1 296 27.6
2004-04-26 07:21:57 51°20.379 2°43.609 299.9 14.2 296 27.6
2004-04-26 07:22:03 51°20.39 2°43.575 300.2 14.2 297 27.7
2004-04-26 07:22:07 51°20.397 2°43.553 300.6 14.2 297 27.5
2004-04-26 07:22:13 51°20.408 2°43.52 300.7 14.2 297 27.5
2004-04-26 07:22:18 51°20.416 2°43.491 300.5 14.2 296 27.7
2004-04-26 07:22:23 51°20.425 2°43.463 299.7 14.2 296 27.6
2004-04-26 07:22:29 51°20.435 2°43.429 299.5 14.2 296 27.6
2004-04-26 07:22:31 51°20.438 2°43.418 299.5 14.2 296 27.3
2004-04-26 07:22:37 51°20.448 2°43.384 299.7 14.2 295 26.8
2004-04-26 07:22:43 51°20.458 2°43.349 299.3 14.2 295 26.6
2004-04-26 07:22:47 51°20.465 2°43.326 299.2 14.2 295 26.3
2004-04-26 07:22:53 51°20.475 2°43.292 299.7 14.1 295 26.4
2004-04-26 07:22:57 51°20.481 2°43.269 299.7 14.2 294 26.3
2004-04-26 07:23:02 51°20.49 2°43.241 299.1 14.2 295 26.2
2004-04-26 07:23:07 51°20.498 2°43.213 299.7 14.1 296 25.7
2004-04-26 07:23:13 51°20.508 2°43.178 299.7 14.2 294 25.6
2004-04-26 07:23:18 51°20.516 2°43.15 299.1 14.3 295 25.1
2004-04-26 07:23:23 51°20.525 2°43.121 300.1 14.2 295 25.3
2004-04-26 07:23:26 51°20.529 2°43.104 299.6 14 293 25.3
2004-04-26 07:23:33 51°20.538 2°43.063 296.1 14.1 287 25
2004-04-26 07:23:37 51°20.542 2°43.039 292.3 14 286 24.9
2004-04-26 07:23:43 51°20.547 2°43.003 289.1 14 283 24.8
2004-04-26 07:23:46 51°20.549 2°42.985 285.9 13.9 280 22.5
2004-04-26 07:23:53 51°20.553 2°42.942 283.7 14 278 23.1
2004-04-26 07:23:57 51°20.555 2°42.917 282.5 14 277 23.5
2004-04-26 07:24:02 51°20.557 2°42.886 281.3 14 277 23.4
2004-04-26 07:24:09 51°20.56 2°42.843 280.8 14 277 23
2004-04-26 07:24:13 51°20.561 2°42.818 280.1 14.1 275 19.6
2004-04-26 07:24:17 51°20.563 2°42.794 279.3 14.1 275 22
2004-04-26 07:24:22 51°20.565 2°42.762 279.3 14 276 23
2004-04-26 07:24:26 51°20.567 2°42.738 279.7 14 276 23.2
2004-04-26 07:24:33 51°20.569 2°42.694 280 14.1 276 23.1
2004-04-26 07:24:38 51°20.571 2°42.663 280 14.1 275 22.3
2004-04-26 07:24:42 51°20.573 2°42.639 279.6 14 275 18.9
2004-04-26 07:24:47 51°20.574 2°42.608 279.1 14 275 21.2
2004-04-26 07:24:53 51°20.577 2°42.57 279 14 276 21.8
2004-04-26 07:24:57 51°20.578 2°42.546 279.7 14.1 276 22.2
2004-04-26 07:25:02 51°20.58 2°42.514 280 14.1 276 22.1
2004-04-26 07:25:07 51°20.583 2°42.483 280.2 14.1 277 20.3
2004-04-26 07:25:13 51°20.586 2°42.446 280.8 14.1 277 19.8
2004-04-26 07:25:17 51°20.587 2°42.421 280.8 14.1 277 21.3
2004-04-26 07:25:22 51°20.589 2°42.39 280.2 14.1 276 20.1
2004-04-26 07:25:29 51°20.592 2°42.347 279.5 14.1 276 19.2
2004-04-26 07:25:33 51°20.594 2°42.322 279.5 14.1 276 20.1
2004-04-26 07:25:38 51°20.596 2°42.291 279.8 14.1 276 19.2
2004-04-26 07:25:41 51°20.597 2°42.272 280.1 14.2 277 19
2004-04-26 07:25:47 51°20.6 2°42.234 280.7 14.2 277 19.3
2004-04-26 07:25:53 51°20.603 2°42.197 280.9 14.2 277 19.6
2004-04-26 07:25:57 51°20.605 2°42.172 280.9 14.2 277 17.7
2004-04-26 07:26:02 51°20.607 2°42.14 280.8 14.2 276 19.5
2004-04-26 07:26:07 51°20.609 2°42.109 280.3 14.1 276 18.5
2004-04-26 07:26:13 51°20.612 2°42.072 280.1 14.2 276 19
2004-04-26 07:26:19 51°20.614 2°42.034 280.1 14.2 277 20
2004-04-26 07:26:23 51°20.616 2°42.009 280.8 14.2 277 20.8
2004-04-26 07:26:29 51°20.619 2°41.972 280.9 14.3 277 21.5
2004-04-26 07:26:33 51°20.621 2°41.946 280.9 14.3 277 20.5
2004-04-26 07:26:38 51°20.623 2°41.915 280.5 14.3 276 18.9
2004-04-26 07:26:43 51°20.625 2°41.884 280.1 14.3 276 19.3
2004-04-26 07:26:49 51°20.628 2°41.846 280.1 14.2 276 19.8
2004-04-26 07:26:53 51°20.63 2°41.821 280.6 14.2 277 20.1
2004-04-26 07:26:58 51°20.632 2°41.79 280.8 14.2 277 21
2004-04-26 07:27:03 51°20.635 2°41.758 280.8 14.3 277 21.8
2004-04-26 07:27:06 51°20.636 2°41.739 280.8 14.2 277 22.3
2004-04-26 07:27:14 51°20.64 2°41.689 280.6 14.2 277 23
2004-04-26 07:27:19 51°20.642 2°41.658 280.6 14.2 277 23.4
2004-04-26 07:27:25 51°20.645 2°41.621 280.5 14.2 277 23.6
2004-04-26 07:27:30 51°20.648 2°41.589 280.7 14.2 277 20.4
2004-04-26 07:27:34 51°20.65 2°41.565 280.8 14.2 278 20.3
2004-04-26 07:27:43 51°20.655 2°41.509 281.3 14.2 278 23.3
2004-04-26 07:27:47 51°20.657 2°41.484 281.6 14.2 278 24.4
2004-04-26 07:27:53 51°20.66 2°41.446 281.5 14.2 278 24.6
2004-04-26 07:27:57 51°20.662 2°41.421 281.3 14.2 277 25.2
2004-04-26 07:28:02 51°20.665 2°41.39 281 14.2 277 26.2
2004-04-26 07:28:07 51°20.667 2°41.359 280.6 14.2 277 26.7
2004-04-26 07:28:13 51°20.67 2°41.322 280.7 14.2 278 27.3
2004-04-26 07:28:18 51°20.673 2°41.29 281.1 14.2 278 27.6
2004-04-26 07:28:23 51°20.676 2°41.259 281.3 14.2 278 27.5
2004-04-26 07:28:27 51°20.678 2°41.234 281.5 14.2 278 27.6
2004-04-26 07:28:33 51°20.681 2°41.197 281.4 14.2 278 27.5
2004-04-26 07:28:38 51°20.684 2°41.166 281 14.2 278 27.6
2004-04-26 07:28:43 51°20.687 2°41.135 280.9 14.2 278 27.6
2004-04-26 07:28:46 51°20.689 2°41.116 281 14.2 278 27.6
2004-04-26 07:28:53 51°20.692 2°41.072 280.6 14.2 278 27.4
2004-04-26 07:28:58 51°20.695 2°41.041 280.6 14.2 277 27.4
2004-04-26 07:29:03 51°20.697 2°41.01 280.3 14.2 278 27.4
2004-04-26 07:29:07 51°20.7 2°40.985 280.8 14.2 278 27.7
2004-04-26 07:29:13 51°20.703 2°40.948 281 14.2 278 27.4
2004-04-26 07:29:17 51°20.705 2°40.923 281.1 14.2 278 27.1
2004-04-26 07:29:23 51°20.709 2°40.885 281.1 14.3 278 27
2004-04-26 07:29:27 51°20.711 2°40.86 281.4 14.3 279 27.1
2004-04-26 07:29:33 51°20.715 2°40.823 281.5 14.2 279 27.1
2004-04-26 07:29:38 51°20.717 2°40.792 281.5 14.2 279 27.3
2004-04-26 07:29:43 51°20.72 2°40.76 281.2 14.2 278 27.2
2004-04-26 07:29:49 51°20.724 2°40.723 281.2 14.2 278 27.2
2004-04-26 07:29:53 51°20.726 2°40.698 280.9 14.2 279 26.3
2004-04-26 07:29:58 51°20.729 2°40.667 281.2 14.1 279 25.8
2004-04-26 07:30:03 51°20.732 2°40.637 281.4 14.1 279 26.5
2004-04-26 07:30:06 51°20.734 2°40.618 281.2 14.1 279 26.4
2004-04-26 07:30:13 51°20.738 2°40.575 281 14.2 278 26.4
2004-04-26 07:30:18 51°20.741 2°40.544 281.1 14.2 279 26.5
2004-04-26 07:30:23 51°20.744 2°40.513 281.6 14.1 279 26.8
2004-04-26 07:30:27 51°20.746 2°40.488 281.5 14.1 279 27
2004-04-26 07:30:33 51°20.75 2°40.451 281.6 14.2 279 26.9
2004-04-26 07:30:37 51°20.752 2°40.426 281.7 14.2 279 27
2004-04-26 07:30:43 51°20.756 2°40.389 281.5 14.1 279 27.1
2004-04-26 07:30:49 51°20.76 2°40.352 281 14.2 279 27
2004-04-26 07:30:53 51°20.762 2°40.327 281.1 14.2 278 27
2004-04-26 07:30:57 51°20.764 2°40.302 280.8 14.2 278 26.5
2004-04-26 07:31:02 51°20.767 2°40.271 280.7 14.2 278 26.2
2004-04-26 07:31:07 51°20.77 2°40.24 280.7 14.2 279 26.2
2004-04-26 07:31:13 51°20.773 2°40.203 281.2 14.2 279 26.1
2004-04-26 07:31:18 51°20.776 2°40.172 281.2 14.2 278 26.5
2004-04-26 07:31:23 51°20.778 2°40.14 279.1 14.2 276 26.6
2004-04-26 07:31:27 51°20.779 2°40.115 278.5 14.2 276 26.8
2004-04-26 07:31:33 51°20.781 2°40.077 277.8 14.2 275 26.9
2004-04-26 07:31:38 51°20.783 2°40.046 277.1 14.2 274 27.2
2004-04-26 07:31:41 51°20.784 2°40.027 276.5 14.2 274 27
2004-04-26 07:31:47 51°20.785 2°39.99 276.4 14.2 275 27
2004-04-26 07:31:53 51°20.787 2°39.952 276.5 14.2 275 26.7
2004-04-26 07:31:58 51°20.789 2°39.921 277.1 14.1 275 26.6
2004-04-26 07:32:02 51°20.79 2°39.896 277.2 14.1 274 26.3
2004-04-26 07:32:07 51°20.791 2°39.865 277.1 14.1 273 26
2004-04-26 07:32:12 51°20.792 2°39.833 276.1 14.1 272 25.9
2004-04-26 07:32:17 51°20.793 2°39.802 275.8 14.1 273 25.8
2004-04-26 07:32:22 51°20.793 2°39.771 276 14.1 272 25.9
2004-04-26 07:32:29 51°20.795 2°39.728 276.5 14.1 274 25.2
2004-04-26 07:32:32 51°20.796 2°39.709 277.1 14.1 273 25.1
2004-04-26 07:32:36 51°20.797 2°39.684 277.2 14.1 274 24.7
2004-04-26 07:32:42 51°20.798 2°39.647 277.3 14.1 273 24.9
2004-04-26 07:32:46 51°20.799 2°39.622 277.3 14.1 273 24.8
2004-04-26 07:32:53 51°20.801 2°39.578 277.4 14.1 273 24.4
2004-04-26 07:32:58 51°20.802 2°39.547 277 14.1 273 24.3
2004-04-26 07:33:03 51°20.802 2°39.516 276.7 14.1 273 24.9
2004-04-26 07:33:07 51°20.804 2°39.491 277 14.1 274 24.8
2004-04-26 07:33:13 51°20.805 2°39.454 277.2 14.1 273 24.8
2004-04-26 07:33:18 51°20.806 2°39.423 277.5 14.1 273 24.8
2004-04-26 07:33:23 51°20.807 2°39.392 277.2 14.1 273 24.9
2004-04-26 07:33:29 51°20.808 2°39.354 277.1 14.2 273 24.8
2004-04-26 07:33:33 51°20.809 2°39.329 277.1 14.2 273 24.4
2004-04-26 07:33:38 51°20.81 2°39.297 277.2 14.2 273 24.3
2004-04-26 07:33:43 51°20.812 2°39.266 277.3 14.2 274 25
2004-04-26 07:33:47 51°20.813 2°39.241 277.5 14.2 274 25.3
2004-04-26 07:33:53 51°20.814 2°39.203 277.5 14.2 273 25.4
2004-04-26 07:33:57 51°20.815 2°39.178 277.2 14.2 273 25.1
2004-04-26 07:34:02 51°20.816 2°39.147 277 14.2 274 24.9
2004-04-26 07:34:09 51°20.817 2°39.103 277 14.2 273 24.4
2004-04-26 07:34:12 51°20.818 2°39.084 277 14.2 273 25.5
2004-04-26 07:34:17 51°20.819 2°39.053 276.9 14.2 273 25.7
2004-04-26 07:34:22 51°20.82 2°39.022 276.7 14.2 273 25.7
2004-04-26 07:34:27 51°20.821 2°38.99 276.8 14.3 273 25.2
2004-04-26 07:34:32 51°20.823 2°38.959 277.5 14.3 274 25.2
2004-04-26 07:34:37 51°20.824 2°38.927 277.8 14.3 273 24.4
2004-04-26 07:34:41 51°20.825 2°38.902 277.3 14.3 273 25.4
2004-04-26 07:34:47 51°20.826 2°38.864 277.2 14.3 273 25.4
2004-04-26 07:34:53 51°20.827 2°38.826 276.7 14.3 272 25.5
2004-04-26 07:34:57 51°20.827 2°38.8 276.5 14.3 272 25.1
2004-04-26 07:35:02 51°20.829 2°38.769 276.6 14.3 273 24.6
2004-04-26 07:35:07 51°20.83 2°38.737 277 14.3 273 24.9
2004-04-26 07:35:12 51°20.831 2°38.705 277.3 14.3 273 25
2004-04-26 07:35:17 51°20.832 2°38.674 277.4 14.3 273 24.8
2004-04-26 07:35:21 51°20.833 2°38.648 277.4 14.3 273 24.9
2004-04-26 07:35:27 51°20.834 2°38.61 277.4 14.4 273 24.7
2004-04-26 07:35:33 51°20.835 2°38.572 277.4 14.4 273 24.7
2004-04-26 07:35:38 51°20.837 2°38.54 277.4 14.4 273 24.6
2004-04-26 07:35:42 51°20.838 2°38.515 277.5 14.4 273 24.7
2004-04-26 07:35:49 51°20.839 2°38.47 277.4 14.4 273 24.6
2004-04-26 07:35:53 51°20.84 2°38.445 277.2 14.3 273 23.1
2004-04-26 07:35:58 51°20.841 2°38.413 276.9 14.3 272 24.6
2004-04-26 07:36:02 51°20.841 2°38.388 276.9 14.3 273 24.4
2004-04-26 07:36:08 51°20.843 2°38.35 277.5 14.3 273 24
2004-04-26 07:36:12 51°20.844 2°38.324 277.6 14.3 274 24.5
2004-04-26 07:36:17 51°20.845 2°38.293 277.8 14.4 273 24.4
2004-04-26 07:36:22 51°20.847 2°38.261 277.8 14.4 274 24.1
2004-04-26 07:36:25 51°20.847 2°38.242 277.9 14.4 273 23.9
2004-04-26 07:36:33 51°20.849 2°38.191 277.4 14.4 273 23.9
2004-04-26 07:36:37 51°20.85 2°38.165 277.2 14.4 273 23.7
2004-04-26 07:36:42 51°20.851 2°38.133 277.1 14.4 273 24.3
2004-04-26 07:36:47 51°20.852 2°38.101 277.1 14.4 273 23.6
2004-04-26 07:36:53 51°20.853 2°38.063 277.1 14.4 273 21.8
2004-04-26 07:36:57 51°20.854 2°38.038 276.9 14.4 273 24.3
2004-04-26 07:37:01 51°20.855 2°38.012 276.9 14.4 273 24.4
2004-04-26 07:37:07 51°20.856 2°37.974 277.2 14.4 274 24.5
2004-04-26 07:37:12 51°20.858 2°37.942 277.5 14.4 274 24.8
2004-04-26 07:37:17 51°20.859 2°37.91 277.5 14.4 273 24.6
2004-04-26 07:37:22 51°20.86 2°37.879 277.2 14.4 273 24.8
2004-04-26 07:37:27 51°20.861 2°37.847 277.2 14.4 273 24.7
2004-04-26 07:37:32 51°20.862 2°37.815 276.9 14.4 273 23
2004-04-26 07:37:38 51°20.863 2°37.777 277 14.3 274 24.3
2004-04-26 07:37:42 51°20.864 2°37.752 277.4 14.3 274 23.1
2004-04-26 07:37:46 51°20.865 2°37.727 277.4 14.3 273 24.1
2004-04-26 07:37:53 51°20.867 2°37.683 277.2 14.2 273 24.2
2004-04-26 07:37:56 51°20.868 2°37.664 277.1 14.2 273 24.6
2004-04-26 07:38:01 51°20.869 2°37.632 277.1 14.2 273 24.3
2004-04-26 07:38:07 51°20.87 2°37.595 277.1 14.2 273 23.2
2004-04-26 07:38:12 51°20.872 2°37.563 277.4 14.2 274 24.8
2004-04-26 07:38:17 51°20.873 2°37.532 277.8 14.2 274 25
2004-04-26 07:38:21 51°20.874 2°37.507 278.1 14.3 274 24.2
2004-04-26 07:38:27 51°20.876 2°37.469 277.9 14.3 274 24.2
2004-04-26 07:38:32 51°20.877 2°37.437 278.1 14.3 274 24.7
2004-04-26 07:38:36 51°20.878 2°37.412 277.5 14.3 273 24.7
2004-04-26 07:38:42 51°20.88 2°37.374 277.2 14.3 274 24.6
2004-04-26 07:38:47 51°20.881 2°37.343 276.9 14.3 273 24.8
2004-04-26 07:38:53 51°20.883 2°37.305 277 14.3 274 24.1
2004-04-26 07:38:57 51°20.884 2°37.28 277.4 14.3 274 23
2004-04-26 07:39:02 51°20.885 2°37.248 277.4 14.3 274 23.8
2004-04-26 07:39:07 51°20.886 2°37.217 277 14.2 273 24
2004-04-26 07:39:13 51°20.887 2°37.179 276.7 14.3 273 23.7
2004-04-26 07:39:17 51°20.888 2°37.154 276.7 14.3 274 22.4
2004-04-26 07:39:22 51°20.89 2°37.122 277.3 14.2 274 23.3
2004-04-26 07:39:25 51°20.89 2°37.103 277.2 14.3 274 23
2004-04-26 07:39:33 51°20.893 2°37.053 277.3 14.3 274 22.2
2004-04-26 07:39:37 51°20.893 2°37.028 277.1 14.2 273 23.3
2004-04-26 07:39:42 51°20.895 2°36.996 276.8 14.2 274 22.8
2004-04-26 07:39:47 51°20.896 2°36.965 276.8 14.2 273 22.1
2004-04-26 07:39:53 51°20.898 2°36.927 277.5 14.2 274 23.4
2004-04-26 07:39:57 51°20.898 2°36.902 277.6 14.2 274 23.1
2004-04-26 07:40:02 51°20.9 2°36.871 277.9 14.2 274 21.3
2004-04-26 07:40:07 51°20.901 2°36.839 277.9 14.2 274 22.9
2004-04-26 07:40:12 51°20.902 2°36.808 277.2 14.2 274 23.5
2004-04-26 07:40:17 51°20.904 2°36.777 277.2 14.2 273 23.4
2004-04-26 07:40:22 51°20.905 2°36.745 277.2 14.2 274 21.9
2004-04-26 07:40:28 51°20.906 2°36.708 277.2 14.1 274 23.4
2004-04-26 07:40:32 51°20.907 2°36.683 277.1 14.2 273 23.8
2004-04-26 07:40:36 51°20.908 2°36.657 277.1 14.2 273 22.4
2004-04-26 07:40:42 51°20.91 2°36.62 276.9 14.2 274 23.6
2004-04-26 07:40:47 51°20.911 2°36.588 277.5 14.2 274 24.3
2004-04-26 07:40:53 51°20.913 2°36.551 277.6 14.3 274 23.4
2004-04-26 07:41:02 51°20.915 2°36.494 277.4 14.2 274 24.2
2004-04-26 07:41:06 51°20.916 2°36.469 277.1 14.3 274 24.6
2004-04-26 07:41:12 51°20.917 2°36.431 277.4 14.3 274 25
2004-04-26 07:41:17 51°20.919 2°36.399 277.5 14.2 274 23.6
2004-04-26 07:41:23 51°20.92 2°36.362 277.3 14.2 274 24.5
2004-04-26 07:41:28 51°20.922 2°36.33 277.2 14.2 274 24.2
2004-04-26 07:41:32 51°20.922 2°36.306 277 14.2 274 23.3
2004-04-26 07:41:37 51°20.924 2°36.274 276.9 14.2 274 25.8
2004-04-26 07:41:42 51°20.925 2°36.243 277.2 14.2 274 25.6
2004-04-26 07:41:47 51°20.926 2°36.211 277.2 14.2 274 24.5
2004-04-26 07:41:52 51°20.928 2°36.18 277 14.1 274 26
2004-04-26 07:41:57 51°20.929 2°36.149 277.1 14.1 274 25.4
2004-04-26 07:42:01 51°20.93 2°36.124 277.2 14.1 274 25
2004-04-26 07:42:08 51°20.932 2°36.081 277.7 14.1 274 26.9
2004-04-26 07:42:11 51°20.933 2°36.062 277.8 14 274 27.2
2004-04-26 07:42:17 51°20.934 2°36.025 277.8 14 274 27.3
2004-04-26 07:42:21 51°20.936 2°36 277.6 14 274 24.1
2004-04-26 07:42:27 51°20.937 2°35.963 277.2 14 274 25.1
2004-04-26 07:42:33 51°20.939 2°35.926 277.1 14 274 26.9
2004-04-26 07:42:37 51°20.94 2°35.901 277.3 14 274 27.2
2004-04-26 07:42:42 51°20.941 2°35.87 277.4 14 274 28.2
2004-04-26 07:42:47 51°20.942 2°35.839 277.4 14 274 28.6
2004-04-26 07:42:53 51°20.944 2°35.802 277.5 14 274 29.1
2004-04-26 07:42:57 51°20.945 2°35.777 277.5 14 275 29.6
2004-04-26 07:43:01 51°20.946 2°35.753 277.6 14 274 28.8
2004-04-26 07:43:09 51°20.949 2°35.703 277.4 14 274 29.3
2004-04-26 07:43:12 51°20.949 2°35.685 277.4 14 273 26.8
2004-04-26 07:43:17 51°20.95 2°35.654 276.9 14 274 27.5
2004-04-26 07:43:22 51°20.952 2°35.623 277.1 13.9 274 28.9
2004-04-26 07:43:27 51°20.953 2°35.592 277.2 13.9 274 30.4
2004-04-26 07:43:33 51°20.954 2°35.555 277.5 14 274 30.7
2004-04-26 07:43:37 51°20.955 2°35.53 277.5 14 274 31.1
2004-04-26 07:43:42 51°20.957 2°35.499 277.5 14 274 31.4
2004-04-26 07:43:45 51°20.958 2°35.481 277.8 14 274 31.5
2004-04-26 07:43:53 51°20.96 2°35.431 278 14.1 274 30.8
2004-04-26 07:43:57 51°20.961 2°35.406 277.9 14.1 274 28.6
2004-04-26 07:44:01 51°20.961 2°35.381 277.3 14.1 273 24.5
2004-04-26 07:44:07 51°20.963 2°35.344 277 14.1 274 27.8
2004-04-26 07:44:13 51°20.964 2°35.306 276.7 14.2 274 29.2
2004-04-26 07:44:17 51°20.966 2°35.281 277.1 14.1 274 30.9
2004-04-26 07:44:22 51°20.967 2°35.25 277.6 14.1 274 31.4
2004-04-26 07:44:27 51°20.968 2°35.219 277.4 14.2 274 30.6
2004-04-26 07:44:33 51°20.97 2°35.181 277.2 14.2 273 31.3
2004-04-26 07:44:37 51°20.97 2°35.156 277 14.2 274 31.1
2004-04-26 07:44:42 51°20.972 2°35.124 277 14.2 274 31.8
2004-04-26 07:44:47 51°20.973 2°35.093 277.2 14.2 274 31.8
2004-04-26 07:44:52 51°20.975 2°35.061 277.9 14.2 274 31.1
2004-04-26 07:44:57 51°20.976 2°35.03 277.6 14.2 274 32
2004-04-26 07:45:02 51°20.978 2°34.998 277.4 14.3 275 31.9
2004-04-26 07:45:09 51°20.98 2°34.954 277.4 14.3 274 31.9
2004-04-26 07:45:13 51°20.981 2°34.929 277.6 14.2 274 31.8
2004-04-26 07:45:17 51°20.982 2°34.904 277.8 14.3 274 31.7
2004-04-26 07:45:22 51°20.984 2°34.872 277.6 14.3 275 31.6
2004-04-26 07:45:27 51°20.986 2°34.841 277.8 14.3 275 30.9
2004-04-26 07:45:33 51°20.988 2°34.803 277.9 14.3 275 31.5
2004-04-26 07:45:42 51°20.991 2°34.746 277.6 14.3 274 31.8
2004-04-26 07:45:46 51°20.992 2°34.721 277.4 14.2 275 31.6
2004-04-26 07:45:53 51°20.994 2°34.677 277.4 14.3 275 31.2
2004-04-26 07:45:56 51°20.995 2°34.658 277.4 14.3 275 31.3
2004-04-26 07:46:02 51°20.997 2°34.62 277.4 14.3 275 31.2
2004-04-26 07:46:09 51°21 2°34.576 277.4 14.3 275 31.1
2004-04-26 07:46:13 51°21.001 2°34.551 277.8 14.2 276 30.9
2004-04-26 07:46:17 51°21.003 2°34.526 277.9 14.2 275 30.8
2004-04-26 07:46:22 51°21.004 2°34.495 277.9 14.2 275 30.7
2004-04-26 07:46:27 51°21.006 2°34.463 277.8 14.2 275 30.9
2004-04-26 07:46:33 51°21.008 2°34.426 277.5 14.2 275 31.1
2004-04-26 07:46:37 51°21.009 2°34.401 277.3 14.2 275 31.3
2004-04-26 07:46:41 51°21.011 2°34.376 277.3 14.2 275 31.4
2004-04-26 07:46:49 51°21.014 2°34.325 277.1 14.2 275 31.3
2004-04-26 07:46:51 51°21.014 2°34.313 277.1 14.2 275 31.4
2004-04-26 07:46:57 51°21.016 2°34.275 277.2 14.2 275 31.3
2004-04-26 07:47:01 51°21.018 2°34.25 277.2 14.2 275 31.2
2004-04-26 07:47:07 51°21.02 2°34.213 277.2 14.2 275 31.2
2004-04-26 07:47:13 51°21.022 2°34.175 277.1 14.2 275 31
2004-04-26 07:47:17 51°21.023 2°34.15 277.1 14.2 275 31.2
2004-04-26 07:47:22 51°21.025 2°34.119 276.9 14.2 275 31
2004-04-26 07:47:27 51°21.027 2°34.088 276.9 14.2 275 30.8
2004-04-26 07:47:32 51°21.028 2°34.056 276.9 14.2 275 30.6
2004-04-26 07:47:37 51°21.03 2°34.025 276.8 14.2 275 30.7
2004-04-26 07:47:41 51°21.032 2°34 276.9 14.2 276 30.6
2004-04-26 07:47:48 51°21.035 2°33.956 277.2 14.2 276 30.5
2004-04-26 07:47:53 51°21.037 2°33.925 277.8 14.1 276 30.4
2004-04-26 07:47:56 51°21.038 2°33.907 277.6 14.1 275 30.9
2004-04-26 07:48:02 51°21.04 2°33.869 277.1 14.1 275 31.3
2004-04-26 07:48:07 51°21.042 2°33.838 276.9 14.1 275 31.9
2004-04-26 07:48:12 51°21.043 2°33.807 277.1 14.1 275 32.1
2004-04-26 07:48:17 51°21.045 2°33.776 277.1 14 275 32.2
2004-04-26 07:48:22 51°21.046 2°33.745 276.9 14 274 31.9
2004-04-26 07:48:26 51°21.047 2°33.72 276 14 273 31.1
2004-04-26 07:48:32 51°21.048 2°33.683 275.7 14.1 273 31.6
2004-04-26 07:48:37 51°21.05 2°33.652 276.1 14.1 274 31.5
2004-04-26 07:48:42 51°21.051 2°33.621 276.7 14.1 274 32.2
2004-04-26 07:48:48 51°21.053 2°33.584 277.3 14.1 274 32.1
2004-04-26 07:48:52 51°21.054 2°33.559 277.5 14.1 274 32.1
2004-04-26 07:48:57 51°21.056 2°33.528 277.5 14.1 275 32.2
2004-04-26 07:49:02 51°21.057 2°33.497 277.4 14.1 274 31.9
2004-04-26 07:49:08 51°21.059 2°33.459 277.2 14.1 274 31.8
2004-04-26 07:49:12 51°21.06 2°33.435 277.2 14.1 274 31.4
2004-04-26 07:49:16 51°21.061 2°33.41 276.9 14.1 274 31.5
2004-04-26 07:49:22 51°21.063 2°33.372 277.2 14 275 31.4
2004-04-26 07:49:27 51°21.064 2°33.341 277.2 14.1 274 31.2
2004-04-26 07:49:32 51°21.066 2°33.31 277.1 14.1 275 31
2004-04-26 07:49:37 51°21.068 2°33.279 277 14 275 30.9
2004-04-26 07:49:42 51°21.07 2°33.249 277.6 14 276 30.5
2004-04-26 07:49:46 51°21.073 2°33.224 281.2 14 280 30.6
2004-04-26 07:49:53 51°21.081 2°33.183 285.5 13.9 289 30.6
2004-04-26 07:49:58 51°21.089 2°33.155 291.2 13.9 294 30.2
2004-04-26 07:50:03 51°21.099 2°33.129 297.3 13.8 298 30.3
2004-04-26 07:50:07 51°21.108 2°33.109 304.9 13.8 303 30.2
2004-04-26 07:50:13 51°21.123 2°33.081 310.6 13.7 311 30.2
2004-04-26 07:50:18 51°21.137 2°33.06 315.4 13.7 316 30.1
2004-04-26 07:50:22 51°21.149 2°33.046 322.8 13.7 321 30
2004-04-26 07:50:28 51°21.168 2°33.027 327.9 13.7 324 29.7
2004-04-26 07:50:33 51°21.186 2°33.014 334.3 13.6 335 29.8
2004-04-26 07:50:37 51°21.2 2°33.006 340.8 13.6 339 29.3
2004-04-26 07:50:42 51°21.218 2°32.995 344.6 13.7 339 28.7
2004-04-26 07:50:48 51°21.239 2°32.981 344.5 13.7 338 28.6
2004-04-26 07:50:52 51°21.253 2°32.971 344 14 336 28.1
2004-04-26 07:50:56 51°21.267 2°32.961 343.1 14 338 27.5
2004-04-26 07:51:02 51°21.289 2°32.948 343.4 14.1 338 27.2
2004-04-26 07:51:07 51°21.307 2°32.936 343.3 14.1 338 26.8
2004-04-26 07:51:12 51°21.326 2°32.926 345 14.1 341 26.1
2004-04-26 07:51:17 51°21.345 2°32.918 348.9 14.1 345 26.1
2004-04-26 07:51:22 51°21.364 2°32.912 351.8 14.1 347 25.5
2004-04-26 07:51:26 51°21.379 2°32.907 353.9 14.1 349 25.5
2004-04-26 07:51:32 51°21.403 2°32.901 355.2 14.1 351 25
2004-04-26 07:51:37 51°21.422 2°32.896 356.5 14.1 351 22.4
2004-04-26 07:51:42 51°21.441 2°32.892 357.4 14.1 352 23.2
2004-04-26 07:51:53 51°21.484 2°32.882 358.3 14.1 352 23.4
2004-04-26 07:52:00 51°21.511 2°32.876 358.3 14.1 352 23
2004-04-26 07:52:03 51°21.523 2°32.874 358.2 14.2 352 22.9
2004-04-26 07:52:09 51°21.546 2°32.868 358 14.2 352 22.8
2004-04-26 07:52:14 51°21.566 2°32.864 357.8 14.2 352 22.2
2004-04-26 07:52:19 51°21.585 2°32.859 357.8 14.2 352 21.4
2004-04-26 07:52:24 51°21.605 2°32.855 358.2 14.2 351 21.3
2004-04-26 07:52:29 51°21.624 2°32.85 357.9 14.1 351 21.6
2004-04-26 07:52:33 51°21.64 2°32.846 357.9 14.2 352 21.9
2004-04-26 07:52:38 51°21.659 2°32.841 357.5 14.2 351 22.1
2004-04-26 07:52:44 51°21.682 2°32.836 357.7 14.1 351 22.3
2004-04-26 07:52:48 51°21.698 2°32.832 357.9 14.2 352 22.5
2004-04-26 07:52:54 51°21.721 2°32.826 358.1 14.2 352 22.6
2004-04-26 07:52:59 51°21.741 2°32.822 358.1 14.1 352 23.1
2004-04-26 07:53:04 51°21.76 2°32.817 357.9 14.1 351 23.5
2004-04-26 07:53:09 51°21.779 2°32.812 357.8 14.2 351 24.2
2004-04-26 07:53:14 51°21.799 2°32.807 357.8 14.2 351 24.9
2004-04-26 07:53:20 51°21.822 2°32.802 357.6 14.2 351 25.2
2004-04-26 07:53:25 51°21.841 2°32.797 357.7 14.2 352 24.9
2004-04-26 07:53:28 51°21.853 2°32.795 358 14.2 352 25.3
2004-04-26 07:53:34 51°21.876 2°32.789 358.2 14.2 352 26
2004-04-26 07:53:39 51°21.896 2°32.785 358.2 14.2 352 26.5
2004-04-26 07:53:44 51°21.915 2°32.78 358.2 14.2 352 27.3
2004-04-26 07:53:49 51°21.935 2°32.775 358 14.2 351 27.7
2004-04-26 07:53:54 51°21.954 2°32.77 357.7 14.1 351 28.4
2004-04-26 07:54:00 51°21.978 2°32.764 357.4 14.1 351 29.1
2004-04-26 07:54:05 51°21.997 2°32.759 357.3 14.2 350 29.4
2004-04-26 07:54:08 51°22.009 2°32.756 357.3 14.2 351 29.7
2004-04-26 07:54:14 51°22.032 2°32.749 357.2 14.2 351 30.2
2004-04-26 07:54:19 51°22.051 2°32.744 357.3 14.1 350 30.8
2004-04-26 07:54:24 51°22.071 2°32.739 357.6 14.1 351 30.6
2004-04-26 07:54:29 51°22.09 2°32.734 357.8 14.2 351 30.8